createdAt,value
2023-02-27T00:01:46.221Z,-2.36
2023-02-27T00:04:17.446Z,-2.39
2023-02-27T00:06:45.309Z,-2.45
2023-02-27T00:09:13.171Z,-2.48
2023-02-27T00:11:43.418Z,-2.48
2023-02-27T00:14:11.399Z,-2.48
2023-02-27T00:16:39.181Z,-2.46
2023-02-27T00:19:07.015Z,-2.50
2023-02-27T00:21:36.827Z,-2.46
2023-02-27T00:24:05.628Z,-2.44
2023-02-27T00:26:33.495Z,-2.46
2023-02-27T00:29:02.687Z,-2.47
2023-02-27T00:31:31.075Z,-2.58
2023-02-27T00:33:58.981Z,-2.50
2023-02-27T00:36:26.789Z,-2.58
2023-02-27T00:38:54.951Z,-2.51
2023-02-27T00:41:22.870Z,-2.51
2023-02-27T00:43:50.692Z,-2.50
2023-02-27T00:46:21.034Z,-2.47
2023-02-27T00:48:49.027Z,-2.48
2023-02-27T00:51:16.794Z,-2.48
2023-02-27T00:53:44.910Z,-2.49
2023-02-27T00:56:12.700Z,-2.46
2023-02-27T00:58:40.671Z,-2.47
2023-02-27T01:01:08.784Z,-2.52
2023-02-27T01:03:38.245Z,-2.49
2023-02-27T01:06:06.641Z,-2.47
2023-02-27T01:08:34.534Z,-2.49
2023-02-27T01:11:02.475Z,-2.53
2023-02-27T01:13:30.244Z,-2.49
2023-02-27T01:15:58.418Z,-2.54
2023-02-27T01:18:26.365Z,-2.54
2023-02-27T01:20:56.099Z,-2.54
2023-02-27T01:23:24.642Z,-2.62
2023-02-27T01:25:52.508Z,-2.54
2023-02-27T01:28:20.341Z,-2.55
2023-02-27T01:30:48.522Z,-2.63
2023-02-27T01:33:16.783Z,-2.51
2023-02-27T01:35:44.534Z,-2.55
2023-02-27T01:38:13.769Z,-2.60
2023-02-27T01:40:42.872Z,-2.58
2023-02-27T01:43:11.836Z,-2.58
2023-02-27T01:45:41.495Z,-2.62
2023-02-27T01:48:14.496Z,-2.61
2023-02-27T01:50:48.001Z,-2.62
2023-02-27T01:53:18.456Z,-2.63
2023-02-27T01:55:47.381Z,-2.66
2023-02-27T01:58:16.139Z,-2.74
2023-02-27T02:00:44.156Z,-2.63
2023-02-27T02:03:27.121Z,-2.64
2023-02-27T02:05:57.528Z,-2.67
2023-02-27T02:08:28.500Z,-2.66
2023-02-27T02:10:57.036Z,-2.66
2023-02-27T02:13:25.237Z,-2.70
2023-02-27T02:16:03.399Z,-2.73
2023-02-27T02:18:37.024Z,-2.73
2023-02-27T02:21:38.674Z,-2.77
2023-02-27T02:24:40.209Z,-2.78
2023-02-27T02:27:23.940Z,-2.82
2023-02-27T02:30:24.425Z,-2.81
2023-02-27T02:33:51.637Z,-2.81
2023-02-27T02:36:46.306Z,-2.81
2023-02-27T02:39:28.188Z,-2.85
2023-02-27T02:42:03.276Z,-2.85
2023-02-27T02:44:38.540Z,-2.82
2023-02-27T02:47:09.318Z,-2.85
2023-02-27T02:49:43.698Z,-2.83
2023-02-27T02:52:17.872Z,-2.82
2023-02-27T02:54:50.113Z,-2.84
2023-02-27T02:57:21.176Z,-2.84
2023-02-27T02:59:52.422Z,-3.00
2023-02-27T03:02:22.569Z,-2.90
2023-02-27T03:04:53.469Z,-2.95
2023-02-27T03:07:25.156Z,-2.88
2023-02-27T03:09:56.794Z,-2.87
2023-02-27T03:12:25.733Z,-2.87
2023-02-27T03:14:57.283Z,-3.01
2023-02-27T03:17:28.845Z,-2.86
2023-02-27T03:19:58.925Z,-2.90
2023-02-27T03:22:30.991Z,-2.91
2023-02-27T03:25:02.150Z,-2.90
2023-02-27T03:27:33.193Z,-3.02
2023-02-27T03:30:05.022Z,-2.93
2023-02-27T03:32:38.288Z,-2.99
2023-02-27T03:35:07.737Z,-3.10
2023-02-27T03:37:41.069Z,-2.94
2023-02-27T03:40:20.898Z,-3.11
2023-02-27T03:42:53.137Z,-2.94
2023-02-27T03:45:25.505Z,-2.94
2023-02-27T03:47:53.531Z,-2.97
2023-02-27T03:50:21.363Z,-2.98
2023-02-27T03:52:49.200Z,-2.99
2023-02-27T03:55:19.985Z,-2.98
2023-02-27T03:57:49.201Z,-3.01
2023-02-27T04:00:19.739Z,-3.04
2023-02-27T04:02:50.628Z,-3.07
2023-02-27T04:05:19.177Z,-3.11
2023-02-27T04:07:56.329Z,-3.16
2023-02-27T04:10:34.337Z,-3.16
2023-02-27T04:13:23.368Z,-3.19
2023-02-27T04:16:17.065Z,-3.20
2023-02-27T04:18:56.874Z,-3.25
2023-02-27T04:21:30.085Z,-3.24
2023-02-27T04:24:02.827Z,-3.23
2023-02-27T04:26:34.661Z,-3.24
2023-02-27T04:29:07.091Z,-3.23
2023-02-27T04:31:44.678Z,-3.21
2023-02-27T04:34:17.234Z,-3.24
2023-02-27T04:36:47.768Z,-3.26
2023-02-27T04:39:21.091Z,-3.25
2023-02-27T04:41:53.490Z,-3.27
2023-02-27T04:44:23.751Z,-3.22
2023-02-27T04:46:52.780Z,-3.21
2023-02-27T04:49:24.282Z,-3.24
2023-02-27T04:51:54.989Z,-3.20
2023-02-27T04:54:27.738Z,-3.22
2023-02-27T04:56:59.422Z,-3.19
2023-02-27T04:59:29.662Z,-3.23
2023-02-27T05:01:59.994Z,-3.21
2023-02-27T05:04:29.374Z,-3.26
2023-02-27T05:06:57.809Z,-3.24
2023-02-27T05:09:30.015Z,-3.27
2023-02-27T05:12:02.288Z,-3.25
2023-02-27T05:14:33.248Z,-3.24
2023-02-27T05:17:05.221Z,-3.26
2023-02-27T05:19:33.929Z,-3.31
2023-02-27T05:22:10.643Z,-3.27
2023-02-27T05:24:48.092Z,-3.29
2023-02-27T05:27:25.237Z,-3.28
2023-02-27T05:29:54.280Z,-3.30
2023-02-27T05:32:32.041Z,-3.27
2023-02-27T05:35:06.660Z,-3.29
2023-02-27T05:37:37.647Z,-3.39
2023-02-27T05:40:08.446Z,-3.45
2023-02-27T05:42:43.418Z,-3.40
2023-02-27T05:45:14.410Z,-3.49
2023-02-27T05:47:47.215Z,-3.45
2023-02-27T05:50:18.242Z,-3.46
2023-02-27T05:52:46.780Z,-3.46
2023-02-27T05:55:19.160Z,-3.47
2023-02-27T05:57:52.640Z,-3.82
2023-02-27T06:00:22.983Z,-3.50
2023-02-27T06:02:50.922Z,-3.52
2023-02-27T06:05:19.989Z,-3.76
2023-02-27T06:07:47.912Z,-3.54
2023-02-27T06:10:17.324Z,-3.76
2023-02-27T06:12:45.115Z,-3.60
2023-02-27T06:15:14.789Z,-3.91
2023-02-27T06:17:42.625Z,-3.58
2023-02-27T06:20:11.835Z,-3.55
2023-02-27T06:22:39.582Z,-3.51
2023-02-27T06:25:08.153Z,-3.51
2023-02-27T06:27:35.948Z,-3.50
2023-02-27T06:30:03.980Z,-3.50
2023-02-27T06:32:33.084Z,-3.48
2023-02-27T06:35:00.846Z,-3.42
2023-02-27T06:37:28.565Z,-3.37
2023-02-27T06:39:56.372Z,-3.30
2023-02-27T06:42:24.117Z,-3.28
2023-02-27T06:44:51.949Z,-3.27
2023-02-27T06:47:19.787Z,-3.25
2023-02-27T06:49:49.128Z,-3.13
2023-02-27T06:52:16.952Z,-3.08
2023-02-27T06:54:44.737Z,-3.00
2023-02-27T06:57:12.505Z,-2.95
2023-02-27T06:59:40.282Z,-2.88
2023-02-27T07:02:08.581Z,-2.82
2023-02-27T07:04:36.368Z,-2.71
2023-02-27T07:07:34.079Z,-2.65
2023-02-27T07:09:53.404Z,-2.57
2023-02-27T07:12:21.189Z,-2.50
2023-02-27T07:14:49.001Z,-2.36
2023-02-27T07:17:16.802Z,-2.30
2023-02-27T07:19:45.478Z,-2.19
2023-02-27T07:22:14.626Z,-2.09
2023-02-27T07:24:42.764Z,-2.01
2023-02-27T07:27:10.546Z,-1.90
2023-02-27T07:29:38.301Z,-1.81
2023-02-27T07:32:06.205Z,-1.70
2023-02-27T07:34:34.758Z,-1.62
2023-02-27T07:37:02.668Z,-1.52
2023-02-27T07:39:31.877Z,-1.50
2023-02-27T07:42:00.111Z,-1.44
2023-02-27T07:44:27.883Z,-1.35
2023-02-27T07:46:55.713Z,-1.29
2023-02-27T07:49:23.575Z,-1.16
2023-02-27T07:51:51.556Z,-1.02
2023-02-27T07:54:19.458Z,-0.93
2023-02-27T07:56:48.625Z,-0.88
2023-02-27T07:59:16.458Z,-0.74
2023-02-27T08:01:44.246Z,-0.66
2023-02-27T08:04:12.057Z,-0.62
2023-02-27T08:06:39.898Z,-0.62
2023-02-27T08:09:07.838Z,-0.58
2023-02-27T08:11:35.632Z,-0.46
2023-02-27T08:14:05.276Z,-0.32
2023-02-27T08:16:33.537Z,-0.24
2023-02-27T08:19:01.805Z,-0.18
2023-02-27T08:21:30.892Z,-0.14
2023-02-27T08:23:58.879Z,-0.01
2023-02-27T08:26:27.060Z,0.17
2023-02-27T08:28:54.984Z,0.37
2023-02-27T08:31:24.372Z,0.42
2023-02-27T08:34:01.142Z,0.54
2023-02-27T08:36:36.962Z,0.51
2023-02-27T08:39:12.044Z,0.68
2023-02-27T08:41:40.360Z,0.99
2023-02-27T08:44:08.360Z,1.22
2023-02-27T08:46:37.764Z,1.39
2023-02-27T08:49:06.830Z,1.62
2023-02-27T08:51:35.258Z,1.59
2023-02-27T08:54:03.342Z,1.70
2023-02-27T08:56:33.454Z,1.60
2023-02-27T08:59:01.805Z,1.76
2023-02-27T09:01:34.398Z,1.82
2023-02-27T09:04:05.970Z,1.85
2023-02-27T09:06:35.898Z,1.94
2023-02-27T09:09:04.709Z,2.11
2023-02-27T09:11:32.906Z,2.22
2023-02-27T09:14:00.799Z,2.42
2023-02-27T09:16:29.116Z,2.40
2023-02-27T09:18:57.237Z,2.29
2023-02-27T09:21:26.704Z,2.37
2023-02-27T09:23:55.179Z,2.54
2023-02-27T09:26:39.758Z,2.72
2023-02-27T09:29:10.302Z,2.66
2023-02-27T09:31:38.485Z,2.65
2023-02-27T09:34:06.458Z,2.77
2023-02-27T09:36:42.551Z,2.54
2023-02-27T09:39:11.066Z,2.52
2023-02-27T09:41:47.649Z,2.42
2023-02-27T09:44:45.354Z,2.55
2023-02-27T09:47:17.899Z,2.42
2023-02-27T09:50:05.625Z,2.76
2023-02-27T09:52:38.228Z,3.06
2023-02-27T09:55:07.472Z,3.26
2023-02-27T09:57:43.844Z,3.12
2023-02-27T10:00:21.460Z,2.98
2023-02-27T10:02:56.819Z,3.03
2023-02-27T10:05:32.623Z,2.96
2023-02-27T10:08:07.724Z,2.94
2023-02-27T10:10:39.319Z,2.77
2023-02-27T10:13:27.010Z,2.73
2023-02-27T10:15:56.135Z,2.72
2023-02-27T10:18:30.760Z,2.65
2023-02-27T10:21:00.375Z,3.06
2023-02-27T10:23:35.292Z,3.45
2023-02-27T10:26:04.301Z,3.89
2023-02-27T10:28:33.122Z,4.29
2023-02-27T10:31:02.167Z,4.02
2023-02-27T10:33:34.464Z,3.92
2023-02-27T10:36:03.566Z,3.64
2023-02-27T10:38:39.511Z,3.71
2023-02-27T10:41:08.864Z,3.53
2023-02-27T10:43:36.756Z,3.44
2023-02-27T10:46:11.602Z,3.68
2023-02-27T10:48:39.494Z,4.03
2023-02-27T10:51:26.290Z,4.25
2023-02-27T10:54:20.347Z,4.50
2023-02-27T10:56:50.462Z,4.78
2023-02-27T10:59:20.762Z,4.82
2023-02-27T11:01:50.491Z,4.59
2023-02-27T11:04:25.883Z,4.19
2023-02-27T11:06:54.501Z,4.26
2023-02-27T11:09:25.489Z,4.42
2023-02-27T11:11:53.937Z,4.51
2023-02-27T11:14:28.032Z,4.78
2023-02-27T11:16:57.067Z,4.70
2023-02-27T11:19:30.487Z,4.56
2023-02-27T11:22:03.976Z,4.65
2023-02-27T11:24:33.897Z,4.67
2023-02-27T11:27:06.693Z,5.06
2023-02-27T11:29:35.495Z,4.92
2023-02-27T11:32:05.490Z,5.11
2023-02-27T11:34:36.325Z,5.10
2023-02-27T11:37:06.564Z,5.19
2023-02-27T11:39:41.317Z,5.38
2023-02-27T11:42:20.354Z,5.32
2023-02-27T11:44:56.045Z,5.44
2023-02-27T11:47:28.374Z,5.79
2023-02-27T11:50:09.626Z,5.11
2023-02-27T11:52:43.892Z,5.61
2023-02-27T11:55:16.015Z,5.38
2023-02-27T11:57:46.280Z,5.61
2023-02-27T12:00:19.856Z,5.73
2023-02-27T12:02:50.338Z,5.77
2023-02-27T12:05:24.207Z,5.57
2023-02-27T12:07:54.435Z,5.71
2023-02-27T12:10:26.397Z,5.31
2023-02-27T12:13:00.776Z,5.33
2023-02-27T12:15:36.085Z,4.59
2023-02-27T12:18:12.763Z,5.68
2023-02-27T12:20:45.389Z,5.55
2023-02-27T12:23:19.953Z,6.07
2023-02-27T12:25:52.868Z,5.76
2023-02-27T12:28:41.326Z,5.88
2023-02-27T12:31:22.838Z,6.41
2023-02-27T12:33:58.208Z,6.70
2023-02-27T12:36:29.756Z,7.77
2023-02-27T12:39:00.740Z,7.26
2023-02-27T12:41:39.609Z,6.38
2023-02-27T12:44:28.795Z,5.59
2023-02-27T12:47:04.478Z,6.58
2023-02-27T12:49:40.950Z,6.43
2023-02-27T12:52:22.204Z,5.61
2023-02-27T12:54:59.752Z,5.23
2023-02-27T12:57:41.767Z,4.94
2023-02-27T13:00:15.050Z,4.55
2023-02-27T13:02:53.689Z,4.89
2023-02-27T13:05:32.421Z,4.73
2023-02-27T13:08:10.101Z,4.78
2023-02-27T13:10:45.503Z,4.52
2023-02-27T13:13:19.526Z,4.54
2023-02-27T13:15:51.143Z,4.79
2023-02-27T13:18:35.198Z,5.24
2023-02-27T13:21:10.477Z,5.20
2023-02-27T13:24:01.228Z,5.90
2023-02-27T13:26:36.224Z,6.57
2023-02-27T13:29:06.667Z,6.07
2023-02-27T13:31:43.931Z,6.22
2023-02-27T13:34:18.889Z,5.35
2023-02-27T13:36:48.433Z,4.64
2023-02-27T13:39:39.815Z,3.97
2023-02-27T13:42:52.966Z,3.65
2023-02-27T13:45:54.451Z,3.53
2023-02-27T13:48:42.096Z,3.61
2023-02-27T13:51:35.902Z,3.88
2023-02-27T13:54:26.715Z,2.84
2023-02-27T13:57:10.520Z,3.60
2023-02-27T13:59:44.713Z,3.45
2023-02-27T14:02:34.416Z,4.31
2023-02-27T14:05:05.934Z,4.44
2023-02-27T14:07:37.995Z,4.12
2023-02-27T14:10:11.442Z,3.86
2023-02-27T14:12:45.728Z,5.54
2023-02-27T14:15:47.660Z,5.37
2023-02-27T14:18:53.063Z,5.85
2023-02-27T14:21:57.898Z,6.44
2023-02-27T14:24:30.123Z,6.09
2023-02-27T14:26:58.398Z,5.55
2023-02-27T14:29:31.249Z,4.86
2023-02-27T14:32:01.006Z,4.28
2023-02-27T14:34:29.234Z,4.34
2023-02-27T14:36:59.764Z,4.85
2023-02-27T14:39:29.662Z,4.70
2023-02-27T14:42:06.840Z,4.66
2023-02-27T14:44:39.727Z,4.12
2023-02-27T14:47:08.039Z,3.58
2023-02-27T14:49:36.771Z,3.97
2023-02-27T14:52:20.672Z,3.90
2023-02-27T14:54:48.678Z,3.80
2023-02-27T14:57:19.054Z,3.72
2023-02-27T14:59:48.912Z,3.68
2023-02-27T15:02:25.019Z,3.54
2023-02-27T15:04:57.130Z,3.49
2023-02-27T15:07:28.706Z,3.45
2023-02-27T15:09:58.335Z,3.16
2023-02-27T15:12:27.861Z,3.24
2023-02-27T15:14:59.411Z,3.69
2023-02-27T15:17:28.910Z,3.50
2023-02-27T15:19:58.613Z,3.27
2023-02-27T15:22:39.081Z,3.23
2023-02-27T15:25:08.539Z,3.16
2023-02-27T15:27:38.172Z,3.11
2023-02-27T15:30:07.373Z,3.17
2023-02-27T15:32:37.762Z,3.07
2023-02-27T15:35:08.237Z,3.14
2023-02-27T15:37:37.478Z,3.21
2023-02-27T15:40:08.736Z,3.19
2023-02-27T15:42:37.623Z,2.66
2023-02-27T15:45:06.755Z,3.04
2023-02-27T15:47:35.236Z,2.96
2023-02-27T15:50:11.354Z,2.89
2023-02-27T15:52:44.123Z,2.65
2023-02-27T15:55:15.590Z,2.14
2023-02-27T15:57:56.619Z,2.30
2023-02-27T16:00:31.615Z,2.71
2023-02-27T16:03:00.291Z,2.58
2023-02-27T16:05:31.237Z,2.55
2023-02-27T16:08:00.995Z,2.45
2023-02-27T16:10:31.420Z,2.42
2023-02-27T16:13:00.278Z,2.27
2023-02-27T16:15:30.713Z,2.24
2023-02-27T16:18:01.340Z,2.13
2023-02-27T16:20:48.652Z,2.14
2023-02-27T16:23:21.529Z,2.20
2023-02-27T16:26:03.832Z,2.26
2023-02-27T16:28:34.050Z,2.17
2023-02-27T16:31:02.570Z,1.68
2023-02-27T16:33:36.739Z,2.00
2023-02-27T16:36:18.946Z,1.82
2023-02-27T16:38:49.172Z,1.94
2023-02-27T16:41:19.448Z,1.83
2023-02-27T16:43:48.907Z,2.00
2023-02-27T16:46:20.428Z,1.95
2023-02-27T16:48:54.519Z,1.87
2023-02-27T16:51:24.424Z,1.81
2023-02-27T16:53:54.913Z,1.46
2023-02-27T16:56:37.321Z,1.37
2023-02-27T16:59:06.400Z,1.61
2023-02-27T17:01:34.846Z,1.82
2023-02-27T17:04:08.676Z,1.77
2023-02-27T17:06:41.513Z,1.54
2023-02-27T17:09:12.532Z,1.65
2023-02-27T17:11:40.389Z,1.51
2023-02-27T17:14:08.259Z,1.50
2023-02-27T17:16:36.418Z,1.52
2023-02-27T17:19:04.774Z,1.49
2023-02-27T17:21:34.492Z,1.53
2023-02-27T17:24:02.977Z,1.55
2023-02-27T17:26:32.426Z,1.54
2023-02-27T17:29:00.707Z,1.45
2023-02-27T17:31:28.514Z,1.40
2023-02-27T17:33:57.333Z,1.39
2023-02-27T17:36:25.356Z,1.32
2023-02-27T17:38:56.403Z,1.27
2023-02-27T17:41:24.818Z,1.14
2023-02-27T17:43:55.486Z,1.28
2023-02-27T17:46:24.091Z,0.97
2023-02-27T17:48:52.242Z,0.89
2023-02-27T17:51:20.399Z,1.11
2023-02-27T17:53:48.261Z,1.11
2023-02-27T17:56:16.321Z,0.99
2023-02-27T17:58:45.617Z,1.06
2023-02-27T18:01:20.466Z,1.02
2023-02-27T18:03:49.400Z,0.92
2023-02-27T18:06:17.595Z,0.97
2023-02-27T18:08:45.775Z,0.22
2023-02-27T18:11:16.411Z,0.68
2023-02-27T18:13:44.640Z,0.81
2023-02-27T18:16:14.158Z,0.88
2023-02-27T18:18:43.345Z,0.59
2023-02-27T18:21:13.509Z,0.87
2023-02-27T18:23:42.026Z,0.62
2023-02-27T18:26:17.141Z,0.78
2023-02-27T18:28:52.999Z,0.51
2023-02-27T18:31:23.895Z,0.14
2023-02-27T18:33:52.296Z,0.62
2023-02-27T18:36:20.232Z,0.62
2023-02-27T18:38:48.714Z,0.61
2023-02-27T18:41:16.650Z,0.42
2023-02-27T18:43:44.761Z,0.03
2023-02-27T18:46:13.784Z,0.39
2023-02-27T18:48:44.769Z,0.32
2023-02-27T18:51:14.668Z,0.41
2023-02-27T18:53:44.488Z,-0.44
2023-02-27T18:56:14.281Z,0.26
2023-02-27T18:58:42.266Z,0.19
2023-02-27T19:01:22.196Z,0.24
2023-02-27T19:03:53.425Z,0.19
2023-02-27T19:06:21.582Z,0.13
2023-02-27T19:08:49.630Z,0.16
2023-02-27T19:11:24.307Z,0.14
2023-02-27T19:14:17.685Z,0.11
2023-02-27T19:16:46.419Z,-0.03
2023-02-27T19:19:15.891Z,0.04
2023-02-27T19:21:44.778Z,-0.35
2023-02-27T19:24:14.838Z,0.00
2023-02-27T19:26:42.922Z,-0.25
2023-02-27T19:29:12.498Z,-0.22
2023-02-27T19:31:40.734Z,-0.14
2023-02-27T19:34:09.968Z,-0.08
2023-02-27T19:36:41.208Z,-0.09
2023-02-27T19:39:09.273Z,-0.10
2023-02-27T19:41:37.746Z,-1.29
2023-02-27T19:44:05.944Z,-0.11
2023-02-27T19:46:35.726Z,-0.13
2023-02-27T19:49:06.165Z,-0.56
2023-02-27T19:51:34.816Z,-0.34
2023-02-27T19:54:04.691Z,-0.22
2023-02-27T19:56:32.753Z,-0.97
2023-02-27T19:59:01.703Z,-0.25
2023-02-27T20:01:32.622Z,-0.47
2023-02-27T20:04:01.296Z,-0.31
2023-02-27T20:06:31.542Z,-0.27
2023-02-27T20:08:59.818Z,-0.70
2023-02-27T20:11:34.755Z,-0.78
2023-02-27T20:14:03.000Z,-0.82
2023-02-27T20:16:35.514Z,-0.37
2023-02-27T20:19:04.038Z,-0.35
2023-02-27T20:21:33.238Z,-0.39
2023-02-27T20:24:01.676Z,-0.60
2023-02-27T20:26:32.967Z,-1.23
2023-02-27T20:29:02.815Z,-0.50
2023-02-27T20:31:33.979Z,-0.45
2023-02-27T20:34:02.130Z,-0.32
2023-02-27T20:36:30.592Z,-0.41
2023-02-27T20:38:58.790Z,-0.33
2023-02-27T20:41:29.472Z,-0.30
2023-02-27T20:43:59.154Z,-0.50
2023-02-27T20:46:28.769Z,-0.24
2023-02-27T20:48:57.850Z,-0.38
2023-02-27T20:51:27.509Z,-0.25
2023-02-27T20:53:58.368Z,-0.30
2023-02-27T20:56:28.220Z,-0.61
2023-02-27T20:58:56.543Z,-0.24
2023-02-27T21:01:26.604Z,-0.56
2023-02-27T21:03:56.070Z,-0.28
2023-02-27T21:06:26.101Z,-0.54
2023-02-27T21:08:56.123Z,-0.37
2023-02-27T21:11:27.792Z,-0.42
2023-02-27T21:13:56.135Z,-0.55
2023-02-27T21:16:26.216Z,-0.33
2023-02-27T21:18:56.561Z,-0.93
2023-02-27T21:21:26.363Z,-0.54
2023-02-27T21:23:54.636Z,-0.37
2023-02-27T21:26:24.247Z,-0.46
2023-02-27T21:28:52.768Z,-0.47
2023-02-27T21:31:23.149Z,-0.45
2023-02-27T21:33:53.287Z,-0.47
2023-02-27T21:36:26.545Z,-0.49
2023-02-27T21:38:58.057Z,-0.50
2023-02-27T21:41:26.404Z,-0.55
2023-02-27T21:43:58.763Z,-0.50
2023-02-27T21:46:27.072Z,-0.47
2023-02-27T21:48:56.766Z,-0.48
2023-02-27T21:51:38.735Z,-0.74
2023-02-27T21:54:09.237Z,-0.54
2023-02-27T21:56:37.387Z,-0.56
2023-02-27T21:59:05.943Z,-0.60
2023-02-27T22:01:36.907Z,-1.10
2023-02-27T22:04:07.138Z,-0.73
2023-02-27T22:06:36.207Z,-0.62
2023-02-27T22:09:07.154Z,-0.92
2023-02-27T22:11:36.543Z,-0.82
2023-02-27T22:14:04.985Z,-0.82
2023-02-27T22:16:33.183Z,-0.77
2023-02-27T22:19:05.561Z,-0.78
2023-02-27T22:21:35.566Z,-1.29
2023-02-27T22:24:03.747Z,-0.90
2023-02-27T22:26:32.497Z,-0.81
2023-02-27T22:29:03.826Z,-0.88
2023-02-27T22:31:34.005Z,-0.83
2023-02-27T22:34:05.113Z,-0.86
2023-02-27T22:36:35.826Z,-1.09
2023-02-27T22:39:05.190Z,-1.24
2023-02-27T22:41:34.537Z,-0.91
2023-02-27T22:44:03.736Z,-1.33
2023-02-27T22:46:34.553Z,-1.07
2023-02-27T22:49:05.822Z,-1.02
2023-02-27T22:51:35.564Z,-1.14
2023-02-27T22:54:06.030Z,-1.21
2023-02-27T22:56:36.407Z,-1.27
2023-02-27T22:59:07.715Z,-1.16
2023-02-27T23:01:37.516Z,-1.18
2023-02-27T23:04:06.760Z,-1.24
2023-02-27T23:06:40.395Z,-1.26
2023-02-27T23:09:10.135Z,-1.63
2023-02-27T23:11:38.617Z,-1.35
2023-02-27T23:14:06.788Z,-1.47
2023-02-27T23:16:36.127Z,-1.53
2023-02-27T23:19:07.019Z,-1.52
2023-02-27T23:21:37.343Z,-1.48
2023-02-27T23:24:06.794Z,-1.49
2023-02-27T23:26:36.418Z,-1.50
2023-02-27T23:29:05.256Z,-1.81
2023-02-27T23:31:35.032Z,-1.51
2023-02-27T23:34:04.885Z,-1.83
2023-02-27T23:36:33.442Z,-1.80
2023-02-27T23:39:03.831Z,-1.63
2023-02-27T23:41:32.253Z,-1.83
2023-02-27T23:44:18.208Z,-1.84
2023-02-27T23:46:46.189Z,-1.63
2023-02-27T23:49:14.540Z,-1.69
2023-02-27T23:51:42.631Z,-1.59
2023-02-27T23:54:12.207Z,-1.64
2023-02-27T23:56:40.576Z,-1.68
2023-02-27T23:59:08.616Z,-1.51
